createdAt,value
2022-12-12T00:01:49.221Z,7.60
2022-12-12T00:04:15.900Z,8.53
2022-12-12T00:06:42.580Z,7.00
2022-12-12T00:09:09.549Z,7.67
2022-12-12T00:11:36.602Z,6.80
2022-12-12T00:14:04.289Z,6.43
2022-12-12T00:16:31.294Z,8.60
2022-12-12T00:18:58.036Z,7.80
2022-12-12T00:21:27.437Z,7.47
2022-12-12T00:23:54.994Z,7.83
2022-12-12T00:26:31.367Z,6.07
2022-12-12T00:28:59.262Z,7.93
2022-12-12T00:31:26.441Z,7.23
2022-12-12T00:33:53.534Z,8.00
2022-12-12T00:36:25.856Z,6.80
2022-12-12T00:38:53.118Z,7.83
2022-12-12T00:41:21.758Z,7.30
2022-12-12T00:43:48.544Z,8.60
2022-12-12T00:46:17.059Z,7.17
2022-12-12T00:48:44.010Z,8.80
2022-12-12T00:51:15.661Z,6.13
2022-12-12T00:53:42.645Z,7.23
2022-12-12T00:56:09.310Z,7.67
2022-12-12T00:58:36.276Z,6.73
2022-12-12T01:01:10.181Z,6.33
2022-12-12T01:03:39.324Z,7.37
2022-12-12T01:06:06.857Z,5.77
2022-12-12T01:08:33.903Z,7.23
2022-12-12T01:11:00.767Z,6.90
2022-12-12T01:13:28.543Z,6.37
2022-12-12T01:15:55.455Z,9.33
2022-12-12T01:18:22.182Z,9.27
2022-12-12T01:20:49.010Z,6.25
2022-12-12T01:23:16.122Z,6.80
2022-12-12T01:25:42.925Z,9.17
2022-12-12T01:28:10.006Z,6.93
2022-12-12T01:30:37.326Z,7.45
2022-12-12T01:33:04.458Z,7.55
2022-12-12T01:35:33.214Z,8.17
2022-12-12T01:37:59.933Z,6.43
2022-12-12T01:40:29.357Z,7.53
2022-12-12T01:42:56.101Z,7.60
2022-12-12T01:46:00.180Z,6.72
2022-12-12T01:48:31.461Z,7.30
2022-12-12T01:51:00.545Z,6.55
2022-12-12T01:53:29.587Z,6.55
2022-12-12T01:55:57.477Z,8.35
2022-12-12T01:58:24.784Z,6.47
2022-12-12T02:00:51.812Z,7.78
2022-12-12T02:03:18.761Z,7.85
2022-12-12T02:05:53.201Z,6.70
2022-12-12T02:08:22.018Z,7.03
2022-12-12T02:10:49.466Z,6.88
2022-12-12T02:13:20.360Z,8.32
2022-12-12T02:16:14.658Z,8.63
2022-12-12T02:19:11.824Z,8.43
2022-12-12T02:21:49.768Z,7.35
2022-12-12T02:24:50.551Z,8.27
2022-12-12T02:27:40.424Z,8.40
2022-12-12T02:30:09.542Z,7.97
2022-12-12T02:33:13.869Z,7.88
2022-12-12T02:36:12.778Z,7.50
2022-12-12T02:39:04.813Z,6.72
2022-12-12T02:41:36.169Z,6.93
2022-12-12T02:44:19.327Z,6.80
2022-12-12T02:47:14.123Z,6.43
2022-12-12T02:49:49.958Z,6.85
2022-12-12T02:52:17.630Z,7.28
2022-12-12T02:54:44.623Z,7.63
2022-12-12T02:57:23.571Z,6.75
2022-12-12T03:00:19.988Z,10.02
2022-12-12T03:03:18.270Z,11.73
2022-12-12T03:06:10.334Z,10.38
2022-12-12T03:08:56.366Z,7.03
2022-12-12T03:11:56.869Z,6.97
2022-12-12T03:14:31.631Z,8.38
2022-12-12T03:17:05.460Z,7.05
2022-12-12T03:19:46.354Z,6.43
2022-12-12T03:22:30.662Z,6.93
2022-12-12T03:25:19.476Z,5.65
2022-12-12T03:27:46.151Z,6.93
2022-12-12T03:30:16.771Z,7.45
2022-12-12T03:32:51.909Z,6.57
2022-12-12T03:35:25.457Z,9.57
2022-12-12T03:38:02.986Z,8.95
2022-12-12T03:40:48.493Z,8.40
2022-12-12T03:43:21.619Z,7.75
2022-12-12T03:46:00.389Z,6.30
2022-12-12T03:48:34.538Z,6.05
2022-12-12T03:51:12.405Z,7.25
2022-12-12T03:53:51.681Z,5.30
2022-12-12T03:56:31.008Z,6.95
2022-12-12T03:59:10.759Z,6.35
2022-12-12T04:02:01.933Z,8.55
2022-12-12T04:04:34.860Z,6.45
2022-12-12T04:07:08.798Z,5.68
2022-12-12T04:09:53.939Z,6.38
2022-12-12T04:12:48.533Z,4.95
2022-12-12T04:15:33.676Z,5.82
2022-12-12T04:18:18.359Z,5.47
2022-12-12T04:21:32.142Z,7.00
2022-12-12T04:24:23.710Z,7.00
2022-12-12T04:27:17.490Z,5.93
2022-12-12T04:30:00.402Z,6.20
2022-12-12T04:32:35.966Z,4.97
2022-12-12T04:35:15.219Z,6.80
2022-12-12T04:37:47.523Z,5.93
2022-12-12T04:40:22.328Z,8.48
2022-12-12T04:42:56.309Z,5.40
2022-12-12T04:45:28.814Z,5.93
2022-12-12T04:47:58.190Z,7.38
2022-12-12T04:50:28.128Z,6.32
2022-12-12T04:52:57.370Z,6.30
2022-12-12T04:55:29.707Z,5.72
2022-12-12T04:57:56.663Z,5.35
2022-12-12T05:00:26.559Z,6.68
2022-12-12T05:03:17.029Z,9.90
2022-12-12T05:06:12.068Z,6.25
2022-12-12T05:08:44.046Z,6.05
2022-12-12T05:11:11.975Z,9.65
2022-12-12T05:13:41.192Z,7.00
2022-12-12T05:16:17.763Z,7.13
2022-12-12T05:18:45.011Z,12.23
2022-12-12T05:21:12.098Z,8.48
2022-12-12T05:23:38.741Z,12.80
2022-12-12T05:26:18.240Z,9.20
2022-12-12T05:28:45.000Z,5.97
2022-12-12T05:31:11.740Z,6.00
2022-12-12T05:33:38.463Z,6.70
2022-12-12T05:36:05.397Z,6.88
2022-12-12T05:38:32.127Z,6.75
2022-12-12T05:40:58.831Z,4.97
2022-12-12T05:43:25.567Z,4.43
2022-12-12T05:45:52.620Z,4.57
2022-12-12T05:48:24.137Z,5.53
2022-12-12T05:50:51.671Z,6.80
2022-12-12T05:53:18.686Z,5.22
2022-12-12T05:55:45.418Z,6.50
2022-12-12T05:58:12.166Z,5.90
2022-12-12T06:00:38.899Z,6.13
2022-12-12T06:03:05.607Z,7.20
2022-12-12T06:05:32.297Z,7.20
2022-12-12T06:07:58.991Z,5.75
2022-12-12T06:10:25.730Z,8.20
2022-12-12T06:12:52.406Z,5.53
2022-12-12T06:15:19.290Z,6.00
2022-12-12T06:17:45.971Z,7.00
2022-12-12T06:20:12.677Z,6.93
2022-12-12T06:22:39.453Z,6.65
2022-12-12T06:25:06.430Z,7.78
2022-12-12T06:27:33.160Z,6.05
2022-12-12T06:29:59.834Z,5.95
2022-12-12T06:32:26.622Z,5.43
2022-12-12T06:34:53.573Z,6.18
2022-12-12T06:37:20.324Z,5.97
2022-12-12T06:39:47.026Z,9.75
2022-12-12T06:42:13.739Z,8.52
2022-12-12T06:44:40.425Z,6.03
2022-12-12T06:47:07.111Z,8.85
2022-12-12T06:49:33.776Z,7.28
2022-12-12T06:52:00.449Z,9.77
2022-12-12T06:54:27.158Z,7.20
2022-12-12T06:56:53.858Z,6.72
2022-12-12T06:59:20.594Z,5.50
2022-12-12T07:01:47.332Z,7.00
2022-12-12T07:04:14.565Z,8.48
2022-12-12T07:06:41.537Z,5.38
2022-12-12T07:09:08.363Z,5.88
2022-12-12T07:11:35.118Z,7.65
2022-12-12T07:14:03.794Z,6.53
2022-12-12T07:16:30.486Z,5.75
2022-12-12T07:18:57.169Z,6.47
2022-12-12T07:21:23.902Z,6.65
2022-12-12T07:23:50.669Z,6.35
2022-12-12T07:26:22.505Z,5.75
2022-12-12T07:28:49.798Z,4.30
2022-12-12T07:31:19.986Z,7.45
2022-12-12T07:33:46.943Z,15.32
2022-12-12T07:36:14.767Z,9.55
2022-12-12T07:38:42.565Z,10.10
2022-12-12T07:41:15.004Z,6.82
2022-12-12T07:43:44.895Z,4.03
2022-12-12T07:46:16.481Z,5.97
2022-12-12T07:48:43.536Z,4.43
2022-12-12T07:51:10.320Z,4.80
2022-12-12T07:53:37.025Z,4.75
2022-12-12T07:56:09.459Z,5.57
2022-12-12T07:58:36.493Z,7.50
2022-12-12T08:01:15.501Z,7.07
2022-12-12T08:03:44.079Z,7.13
2022-12-12T08:06:11.616Z,7.00
2022-12-12T08:08:38.557Z,7.15
2022-12-12T08:11:07.455Z,14.43
2022-12-12T08:13:36.550Z,10.27
2022-12-12T08:16:04.643Z,6.50
2022-12-12T08:18:31.996Z,8.63
2022-12-12T08:20:58.717Z,10.73
2022-12-12T08:23:25.401Z,20.48
2022-12-12T08:25:52.965Z,11.98
2022-12-12T08:28:19.720Z,8.38
2022-12-12T08:30:50.022Z,4.57
2022-12-12T08:33:17.099Z,6.65
2022-12-12T08:35:44.025Z,8.70
2022-12-12T08:38:10.823Z,8.60
2022-12-12T08:40:37.515Z,13.03
2022-12-12T08:43:04.316Z,14.77
2022-12-12T08:45:31.014Z,11.33
2022-12-12T08:47:58.619Z,9.40
2022-12-12T08:50:25.753Z,9.13
2022-12-12T08:52:52.817Z,10.10
2022-12-12T08:55:20.152Z,7.00
2022-12-12T08:57:47.009Z,7.13
2022-12-12T09:00:14.246Z,8.83
2022-12-12T09:02:41.017Z,8.33
2022-12-12T09:05:08.109Z,7.83
2022-12-12T09:07:35.216Z,7.90
2022-12-12T09:10:02.557Z,8.13
2022-12-12T09:12:29.445Z,8.23
2022-12-12T09:14:56.121Z,10.27
2022-12-12T09:17:23.046Z,10.43
2022-12-12T09:19:49.847Z,8.30
2022-12-12T09:22:17.874Z,8.73
2022-12-12T09:24:44.594Z,9.10
2022-12-12T09:27:11.293Z,9.63
2022-12-12T09:29:37.996Z,8.00
2022-12-12T09:32:06.577Z,7.83
2022-12-12T09:34:34.269Z,7.90
2022-12-12T09:37:01.602Z,7.57
2022-12-12T09:39:28.334Z,6.83
2022-12-12T09:41:55.666Z,6.53
2022-12-12T09:44:25.573Z,6.37
2022-12-12T09:47:00.380Z,7.33
2022-12-12T09:49:43.704Z,7.93
2022-12-12T09:52:15.299Z,7.27
2022-12-12T09:54:42.203Z,9.87
2022-12-12T09:57:27.573Z,7.20
2022-12-12T10:00:10.969Z,8.83
2022-12-12T10:02:54.615Z,9.60
2022-12-12T10:05:24.245Z,8.20
2022-12-12T10:08:02.384Z,10.13
2022-12-12T10:10:35.362Z,7.27
2022-12-12T10:13:04.699Z,8.57
2022-12-12T10:15:44.898Z,9.80
2022-12-12T10:18:34.806Z,6.10
2022-12-12T10:21:04.970Z,5.70
2022-12-12T10:23:46.312Z,6.73
2022-12-12T10:26:21.637Z,7.43
2022-12-12T10:29:17.974Z,6.27
2022-12-12T10:31:47.706Z,25.27
2022-12-12T10:34:32.417Z,15.33
2022-12-12T10:37:17.785Z,11.50
2022-12-12T10:39:50.469Z,13.53
2022-12-12T10:42:19.983Z,14.27
2022-12-12T10:45:04.769Z,12.17
2022-12-12T10:47:31.497Z,10.40
2022-12-12T10:50:13.414Z,10.23
2022-12-12T10:52:40.715Z,13.93
2022-12-12T10:55:35.287Z,11.37
2022-12-12T10:58:04.090Z,15.63
2022-12-12T11:00:35.148Z,12.83
2022-12-12T11:03:26.444Z,10.87
2022-12-12T11:05:54.739Z,7.13
2022-12-12T11:08:27.435Z,7.63
2022-12-12T11:11:00.001Z,11.37
2022-12-12T11:13:27.157Z,7.37
2022-12-12T11:16:11.588Z,5.07
2022-12-12T11:18:39.933Z,5.27
2022-12-12T11:21:15.656Z,5.30
2022-12-12T11:23:50.345Z,5.13
2022-12-12T11:26:19.023Z,5.07
2022-12-12T11:28:53.297Z,5.00
2022-12-12T11:31:23.479Z,6.97
2022-12-12T11:33:57.039Z,5.90
2022-12-12T11:36:31.904Z,5.00
2022-12-12T11:39:00.909Z,5.23
2022-12-12T11:41:27.755Z,5.83
2022-12-12T11:43:59.868Z,4.43
2022-12-12T11:46:31.927Z,3.97
2022-12-12T11:49:04.208Z,5.03
2022-12-12T11:51:33.880Z,6.60
2022-12-12T11:54:03.443Z,6.00
2022-12-12T11:56:30.332Z,6.80
2022-12-12T11:59:18.899Z,7.57
2022-12-12T12:02:05.362Z,6.63
2022-12-12T12:04:53.763Z,8.03
2022-12-12T12:07:42.296Z,7.27
2022-12-12T12:10:24.372Z,5.83
2022-12-12T12:13:23.106Z,7.53
2022-12-12T12:16:02.830Z,5.77
2022-12-12T12:18:41.532Z,4.90
2022-12-12T12:21:47.108Z,6.70
2022-12-12T12:24:58.352Z,6.97
2022-12-12T12:27:45.462Z,5.43
2022-12-12T12:30:44.257Z,6.30
2022-12-12T12:33:42.862Z,4.87
2022-12-12T12:36:21.496Z,5.30
2022-12-12T12:39:25.774Z,6.00
2022-12-12T12:42:11.137Z,4.30
2022-12-12T12:44:43.634Z,4.20
2022-12-12T12:47:32.352Z,5.93
2022-12-12T12:50:21.648Z,4.43
2022-12-12T12:53:04.388Z,3.87
2022-12-12T12:55:38.496Z,5.37
2022-12-12T12:58:07.098Z,5.63
2022-12-12T13:00:35.710Z,5.73
2022-12-12T13:03:17.599Z,6.80
2022-12-12T13:05:52.628Z,5.50
2022-12-12T13:08:41.065Z,3.63
2022-12-12T13:11:18.538Z,5.53
2022-12-12T13:13:48.388Z,4.30
2022-12-12T13:16:18.848Z,4.20
2022-12-12T13:18:50.123Z,3.80
2022-12-12T13:21:43.911Z,4.47
2022-12-12T13:24:20.646Z,5.93
2022-12-12T13:27:10.660Z,7.70
2022-12-12T13:30:00.190Z,10.63
2022-12-12T13:32:26.812Z,14.53
2022-12-12T13:35:16.097Z,14.20
2022-12-12T13:37:50.759Z,12.90
2022-12-12T13:40:43.644Z,8.10
2022-12-12T13:43:41.465Z,5.90
2022-12-12T13:46:23.582Z,4.27
2022-12-12T13:49:09.160Z,4.80
2022-12-12T13:51:41.301Z,6.00
2022-12-12T13:54:13.227Z,4.00
2022-12-12T13:56:45.416Z,5.57
2022-12-12T13:59:25.405Z,4.20
2022-12-12T14:02:02.175Z,4.40
2022-12-12T14:04:33.731Z,6.77
2022-12-12T14:07:12.550Z,3.60
2022-12-12T14:09:50.681Z,4.50
2022-12-12T14:12:29.232Z,3.60
2022-12-12T14:15:18.440Z,4.10
2022-12-12T14:17:53.746Z,3.93
2022-12-12T14:20:31.384Z,3.97
2022-12-12T14:23:13.492Z,5.83
2022-12-12T14:25:41.231Z,5.43
2022-12-12T14:28:28.157Z,4.03
2022-12-12T14:31:03.070Z,4.40
2022-12-12T14:34:00.254Z,6.10
2022-12-12T14:36:57.691Z,4.37
2022-12-12T14:40:04.698Z,4.03
2022-12-12T14:43:18.859Z,4.53
2022-12-12T14:45:39.371Z,4.40
2022-12-12T14:48:16.883Z,4.70
2022-12-12T14:51:06.085Z,4.20
2022-12-12T14:53:32.805Z,4.67
2022-12-12T14:56:03.230Z,4.23
2022-12-12T14:58:34.017Z,6.20
2022-12-12T15:01:03.563Z,6.00
2022-12-12T15:03:39.244Z,4.90
2022-12-12T15:06:24.066Z,4.93
2022-12-12T15:08:52.348Z,6.23
2022-12-12T15:11:32.544Z,5.20
2022-12-12T15:14:02.572Z,7.80
2022-12-12T15:16:48.910Z,9.97
2022-12-12T15:19:39.005Z,12.57
2022-12-12T15:22:16.215Z,13.70
2022-12-12T15:24:44.199Z,34.70
2022-12-12T15:27:22.877Z,29.53
2022-12-12T15:29:49.718Z,26.47
2022-12-12T15:32:22.900Z,42.97
2022-12-12T15:35:08.042Z,36.90
2022-12-12T15:40:17.313Z,20.60
2022-12-12T15:42:56.738Z,39.13
2022-12-12T15:45:51.370Z,202.73
2022-12-12T15:48:35.481Z,251.97
2022-12-12T15:51:06.935Z,133.97
2022-12-12T15:53:40.163Z,113.13
2022-12-12T15:56:29.360Z,99.77
2022-12-12T15:59:32.025Z,63.70
2022-12-12T16:02:22.676Z,119.07
2022-12-12T16:05:11.410Z,124.20
2022-12-12T16:07:38.672Z,72.37
2022-12-12T16:10:23.277Z,30.33
2022-12-12T16:13:23.825Z,18.70
2022-12-12T16:15:51.927Z,21.93
2022-12-12T16:18:38.282Z,23.40
2022-12-12T16:21:09.035Z,35.47
2022-12-12T16:23:44.673Z,27.13
2022-12-12T16:26:17.435Z,20.90
2022-12-12T16:28:51.401Z,22.50
2022-12-12T16:34:04.023Z,16.27
2022-12-12T16:36:41.976Z,13.70
2022-12-12T16:39:11.892Z,10.13
2022-12-12T16:41:42.822Z,8.77
2022-12-12T16:44:10.351Z,9.20
2022-12-12T16:46:39.586Z,12.50
2022-12-12T16:49:15.043Z,11.13
2022-12-12T16:51:43.659Z,10.70
2022-12-12T16:54:17.030Z,12.87
2022-12-12T16:56:44.780Z,10.70
2022-12-12T16:59:11.739Z,9.47
2022-12-12T17:01:40.493Z,13.80
2022-12-12T17:04:15.797Z,13.30
2022-12-12T17:06:43.761Z,12.20
2022-12-12T17:09:10.670Z,11.10
2022-12-12T17:11:38.708Z,14.30
2022-12-12T17:14:06.676Z,10.57
2022-12-12T17:16:33.767Z,12.00
2022-12-12T17:19:01.674Z,12.27
2022-12-12T17:21:28.945Z,13.83
2022-12-12T17:23:58.356Z,10.93
2022-12-12T17:26:25.368Z,10.30
2022-12-12T17:28:52.172Z,10.07
2022-12-12T17:31:18.965Z,13.00
2022-12-12T17:33:50.663Z,11.23
2022-12-12T17:36:19.094Z,9.40
2022-12-12T17:38:45.920Z,8.43
2022-12-12T17:41:12.736Z,9.00
2022-12-12T17:43:41.319Z,7.90
2022-12-12T17:46:14.509Z,7.87
2022-12-12T17:48:45.996Z,8.67
2022-12-12T17:51:14.796Z,9.10
2022-12-12T17:53:41.784Z,7.57
2022-12-12T17:56:09.664Z,7.03
2022-12-12T17:58:39.014Z,7.13
2022-12-12T18:01:10.637Z,12.20
2022-12-12T18:03:37.467Z,12.40
2022-12-12T18:06:04.365Z,9.87
2022-12-12T18:08:31.246Z,12.60
2022-12-12T18:10:58.072Z,9.70
2022-12-12T18:13:24.929Z,14.40
2022-12-12T18:15:58.928Z,8.97
2022-12-12T18:18:26.764Z,9.63
2022-12-12T18:20:53.924Z,10.70
2022-12-12T18:23:20.728Z,7.43
2022-12-12T18:25:47.646Z,8.77
2022-12-12T18:28:14.512Z,6.67
2022-12-12T18:30:42.045Z,6.37
2022-12-12T18:33:09.552Z,7.25
2022-12-12T18:35:36.848Z,6.57
2022-12-12T18:38:03.719Z,5.40
2022-12-12T18:40:30.491Z,6.72
2022-12-12T18:42:57.207Z,6.10
2022-12-12T18:45:24.197Z,6.35
2022-12-12T18:47:51.088Z,5.57
2022-12-12T18:50:17.789Z,6.38
2022-12-12T18:52:44.496Z,7.32
2022-12-12T18:55:11.423Z,6.77
2022-12-12T18:57:38.129Z,6.10
2022-12-12T19:00:07.280Z,5.63
2022-12-12T19:02:38.525Z,4.93
2022-12-12T19:05:06.837Z,7.32
2022-12-12T19:07:33.638Z,11.60
2022-12-12T19:10:00.352Z,10.50
2022-12-12T19:12:27.045Z,5.97
2022-12-12T19:15:15.857Z,6.43
2022-12-12T19:17:40.482Z,5.20
2022-12-12T19:20:07.603Z,8.10
2022-12-12T19:22:49.505Z,6.68
2022-12-12T19:25:18.038Z,8.98
2022-12-12T19:27:45.147Z,7.07
2022-12-12T19:30:13.719Z,9.70
2022-12-12T19:32:40.763Z,6.32
2022-12-12T19:35:07.845Z,6.65
2022-12-12T19:37:36.371Z,8.77
2022-12-12T19:40:03.305Z,9.27
2022-12-12T19:42:29.989Z,11.18
2022-12-12T19:44:56.676Z,25.85
2022-12-12T19:47:23.350Z,507.90
2022-12-12T19:49:50.880Z,293.13
2022-12-12T19:52:18.681Z,64.97
2022-12-12T19:54:45.361Z,20.95
2022-12-12T19:57:12.047Z,15.63
2022-12-12T19:59:38.839Z,17.83
2022-12-12T20:02:06.615Z,43.97
2022-12-12T20:04:33.786Z,19.60
2022-12-12T20:07:00.535Z,11.52
2022-12-12T20:09:29.201Z,14.25
2022-12-12T20:11:57.840Z,23.38
2022-12-12T20:14:27.775Z,25.60
2022-12-12T20:16:55.355Z,23.83
2022-12-12T20:19:23.974Z,17.92
2022-12-12T20:22:00.959Z,16.48
2022-12-12T20:24:29.006Z,20.17
2022-12-12T20:26:56.018Z,20.00
2022-12-12T20:29:23.328Z,16.20
2022-12-12T20:31:50.483Z,16.60
2022-12-12T20:34:21.674Z,17.85
2022-12-12T20:36:48.511Z,14.50
2022-12-12T20:39:16.585Z,21.50
2022-12-12T20:41:44.571Z,17.65
2022-12-12T20:44:12.569Z,18.73
2022-12-12T20:46:42.388Z,23.95
2022-12-12T20:49:12.350Z,25.40
2022-12-12T20:51:56.919Z,22.40
2022-12-12T20:54:26.459Z,24.08
2022-12-12T20:56:54.523Z,29.08
2022-12-12T20:59:22.271Z,24.92
2022-12-12T21:01:49.340Z,25.83
2022-12-12T21:04:16.114Z,18.88
2022-12-12T21:06:48.299Z,12.93
2022-12-12T21:09:23.765Z,21.55
2022-12-12T21:11:52.778Z,24.38
2022-12-12T21:14:19.595Z,18.45
2022-12-12T21:16:46.393Z,14.93
2022-12-12T21:19:14.412Z,18.08
2022-12-12T21:21:42.576Z,19.63
2022-12-12T21:24:12.932Z,20.02
2022-12-12T21:26:39.947Z,19.25
2022-12-12T21:29:06.874Z,25.58
2022-12-12T21:31:36.933Z,22.15
2022-12-12T21:34:05.762Z,42.53
2022-12-12T21:36:33.174Z,33.42
2022-12-12T21:39:01.265Z,27.73
2022-12-12T21:41:28.419Z,29.05
2022-12-12T21:43:56.400Z,23.67
2022-12-12T21:46:25.448Z,16.65
2022-12-12T21:49:11.913Z,26.33
2022-12-12T21:51:40.430Z,25.25
2022-12-12T21:54:08.854Z,23.92
2022-12-12T21:56:35.626Z,27.95
2022-12-12T21:59:03.345Z,25.63
2022-12-12T22:01:31.976Z,18.55
2022-12-12T22:03:59.805Z,15.70
2022-12-12T22:06:30.054Z,14.30
2022-12-12T22:08:58.905Z,13.82
2022-12-12T22:11:40.840Z,16.92
2022-12-12T22:14:14.634Z,17.98
2022-12-12T22:16:41.302Z,19.33
2022-12-12T22:19:11.659Z,12.63
2022-12-12T22:21:38.881Z,10.25
2022-12-12T22:24:06.121Z,11.60
2022-12-12T22:26:35.637Z,9.70
2022-12-12T22:29:09.555Z,13.18
2022-12-12T22:31:38.168Z,12.02
2022-12-12T22:34:15.487Z,9.98
2022-12-12T22:36:42.712Z,8.63
2022-12-12T22:39:17.623Z,7.85
2022-12-12T22:41:44.980Z,8.65
2022-12-12T22:44:17.147Z,9.18
2022-12-12T22:46:45.787Z,10.65
2022-12-12T22:49:15.250Z,12.43
2022-12-12T22:51:42.849Z,10.02
2022-12-12T22:54:09.597Z,20.15
2022-12-12T22:56:37.946Z,26.25
2022-12-12T22:59:05.879Z,21.75
2022-12-12T23:01:33.173Z,10.60
2022-12-12T23:04:00.670Z,7.95
2022-12-12T23:06:30.091Z,8.90
2022-12-12T23:08:59.419Z,6.65
2022-12-12T23:11:28.550Z,6.68
2022-12-12T23:13:59.501Z,7.15
2022-12-12T23:16:27.551Z,14.25
2022-12-12T23:18:54.822Z,25.38
2022-12-12T23:21:23.293Z,16.25
2022-12-12T23:23:51.119Z,9.07
2022-12-12T23:26:23.474Z,8.50
2022-12-12T23:28:51.081Z,9.07
2022-12-12T23:31:28.377Z,11.00
2022-12-12T23:34:00.854Z,7.00
2022-12-12T23:36:27.965Z,6.65
2022-12-12T23:39:07.535Z,7.13
2022-12-12T23:41:36.456Z,12.85
2022-12-12T23:44:03.317Z,10.55
2022-12-12T23:46:31.834Z,8.23
2022-12-12T23:49:04.934Z,8.68
2022-12-12T23:51:35.102Z,9.73
2022-12-12T23:54:04.594Z,9.65
2022-12-12T23:56:31.521Z,11.30
2022-12-12T23:58:59.095Z,7.07
